createdAt,value
2023-04-22T00:05:30.509Z,58.17
2023-04-22T00:12:12.801Z,58.36
2023-04-22T00:18:54.936Z,58.21
2023-04-22T00:25:37.081Z,59.20
2023-04-22T00:32:19.311Z,58.88
2023-04-22T00:39:01.724Z,58.87
2023-04-22T00:45:44.857Z,59.02
2023-04-22T00:52:27.019Z,59.68
2023-04-22T00:59:09.961Z,59.61
2023-04-22T01:05:52.309Z,59.28
2023-04-22T01:12:34.777Z,59.61
2023-04-22T01:19:17.610Z,60.24
2023-04-22T01:26:00.062Z,61.36
2023-04-22T01:32:42.589Z,61.88
2023-04-22T01:39:24.876Z,62.87
2023-04-22T01:46:08.571Z,63.49
2023-04-22T01:52:50.966Z,63.77
2023-04-22T01:59:33.129Z,63.69
2023-04-22T02:06:15.370Z,63.98
2023-04-22T02:12:57.908Z,64.05
2023-04-22T02:19:40.376Z,64.64
2023-04-22T02:26:23.733Z,64.67
2023-04-22T02:33:05.984Z,64.81
2023-04-22T02:39:49.512Z,65.00
2023-04-22T02:46:32.844Z,64.69
2023-04-22T02:53:15.102Z,64.63
2023-04-22T02:59:57.352Z,64.44
2023-04-22T03:06:40.271Z,64.15
2023-04-22T03:13:22.737Z,64.06
2023-04-22T03:20:07.333Z,63.20
2023-04-22T03:26:49.714Z,63.29
2023-04-22T03:33:31.901Z,63.25
2023-04-22T03:40:21.122Z,63.49
2023-04-22T03:47:04.674Z,63.07
2023-04-22T03:53:53.605Z,62.90
2023-04-22T04:00:38.867Z,62.40
2023-04-22T04:07:25.881Z,61.33
2023-04-22T04:14:08.201Z,60.71
2023-04-22T04:21:04.429Z,60.51
2023-04-22T04:27:51.899Z,60.31
2023-04-22T04:34:34.898Z,60.17
2023-04-22T04:41:21.157Z,60.53
2023-04-22T04:48:09.424Z,59.96
2023-04-22T04:54:56.235Z,60.16
2023-04-22T05:01:39.085Z,60.18
2023-04-22T05:08:24.282Z,60.35
2023-04-22T05:15:10.894Z,59.51
2023-04-22T05:21:53.772Z,59.93
2023-04-22T05:28:36.010Z,58.86
2023-04-22T05:35:19.794Z,58.48
2023-04-22T05:42:02.705Z,57.72
2023-04-22T05:48:45.745Z,58.31
2023-04-22T05:55:48.035Z,57.83
2023-04-22T06:02:30.850Z,57.35
2023-04-22T06:09:13.205Z,57.63
2023-04-22T06:15:57.830Z,58.04
2023-04-22T06:22:40.998Z,57.66
2023-04-22T06:29:25.501Z,57.26
2023-04-22T06:36:08.936Z,57.08
2023-04-22T06:42:52.881Z,56.77
2023-04-22T06:49:38.410Z,57.56
2023-04-22T06:56:36.161Z,58.12
2023-04-22T07:03:18.589Z,58.29
2023-04-22T07:10:10.869Z,58.45
2023-04-22T07:17:01.767Z,57.87
2023-04-22T07:23:43.867Z,57.42
2023-04-22T07:30:26.214Z,57.77
2023-04-22T07:37:09.542Z,57.69
2023-04-22T07:43:52.370Z,56.86
2023-04-22T07:50:35.219Z,56.37
2023-04-22T07:57:21.809Z,55.83
2023-04-22T08:04:04.156Z,55.54
2023-04-22T08:10:46.527Z,56.17
2023-04-22T08:17:28.855Z,54.56
2023-04-22T08:24:11.181Z,53.98
2023-04-22T08:30:53.437Z,53.11
2023-04-22T08:37:36.072Z,53.92
2023-04-22T08:44:19.294Z,53.36
2023-04-22T08:51:01.801Z,52.15
2023-04-22T08:57:45.021Z,51.15
2023-04-22T09:04:27.401Z,50.73
2023-04-22T09:11:10.516Z,48.95
2023-04-22T09:17:52.873Z,48.02
2023-04-22T09:24:35.804Z,48.31
2023-04-22T09:31:18.269Z,46.43
2023-04-22T09:38:03.253Z,45.91
2023-04-22T09:44:54.178Z,44.09
2023-04-22T09:51:42.517Z,43.44
2023-04-22T09:58:27.318Z,43.18
2023-04-22T10:05:10.183Z,42.50
2023-04-22T10:11:55.336Z,41.86
2023-04-22T10:18:40.679Z,40.60
2023-04-22T10:25:25.780Z,39.55
2023-04-22T10:32:11.090Z,38.24
2023-04-22T10:38:53.239Z,37.77
2023-04-22T10:45:36.727Z,37.43
2023-04-22T10:52:30.817Z,36.62
2023-04-22T10:59:17.295Z,35.78
2023-04-22T11:06:17.085Z,36.50
2023-04-22T11:13:02.153Z,36.93
2023-04-22T11:19:44.351Z,36.68
2023-04-22T11:26:37.482Z,36.44
2023-04-22T11:33:20.420Z,36.75
2023-04-22T11:46:49.507Z,36.68
2023-04-22T11:53:31.781Z,36.05
2023-04-22T12:00:17.462Z,34.94
2023-04-22T12:06:59.586Z,34.58
2023-04-22T12:13:45.659Z,34.11
2023-04-22T12:20:37.087Z,34.37
2023-04-22T12:27:19.264Z,34.38
2023-04-22T12:34:02.172Z,34.57
2023-04-22T12:40:44.557Z,33.87
2023-04-22T12:47:27.078Z,33.33
2023-04-22T12:54:10.701Z,33.79
2023-04-22T13:00:52.949Z,33.44
2023-04-22T13:07:35.271Z,34.06
2023-04-22T13:14:18.111Z,33.89
2023-04-22T13:21:00.350Z,33.85
2023-04-22T13:27:42.633Z,33.34
2023-04-22T13:34:24.985Z,33.79
2023-04-22T13:41:07.224Z,34.18
2023-04-22T13:47:49.645Z,33.87
2023-04-22T13:54:31.917Z,33.07
2023-04-22T14:01:14.349Z,34.11
2023-04-22T14:07:59.942Z,33.76
2023-04-22T14:14:42.421Z,32.71
2023-04-22T14:21:27.125Z,32.76
2023-04-22T14:28:16.453Z,31.96
2023-04-22T14:34:58.686Z,31.81
2023-04-22T14:41:41.065Z,31.69
2023-04-22T14:48:25.199Z,32.06
2023-04-22T14:55:19.357Z,32.71
2023-04-22T15:02:06.386Z,32.61
2023-04-22T15:08:49.177Z,32.89
2023-04-22T15:15:32.079Z,32.22
2023-04-22T15:22:14.240Z,32.27
2023-04-22T15:28:56.455Z,33.22
2023-04-22T15:35:38.649Z,33.72
2023-04-22T15:42:20.798Z,34.30
2023-04-22T15:49:04.218Z,34.50
2023-04-22T15:55:47.423Z,34.25
2023-04-22T16:02:30.988Z,34.86
2023-04-22T16:09:13.458Z,34.79
2023-04-22T16:15:57.018Z,35.83
2023-04-22T16:22:39.083Z,36.55
2023-04-22T16:29:21.242Z,37.46
2023-04-22T16:36:03.657Z,37.84
2023-04-22T16:42:45.814Z,38.05
2023-04-22T16:49:28.215Z,38.64
2023-04-22T16:56:11.194Z,39.52
2023-04-22T17:02:53.459Z,41.07
2023-04-22T17:09:35.726Z,42.09
2023-04-22T17:16:18.289Z,42.66
2023-04-22T17:23:00.834Z,43.21
2023-04-22T17:29:43.286Z,43.96
2023-04-22T17:36:25.655Z,44.52
2023-04-22T17:43:07.879Z,44.92
2023-04-22T17:49:50.314Z,46.00
2023-04-22T17:56:32.519Z,46.74
2023-04-22T18:03:14.952Z,46.83
2023-04-22T18:09:57.129Z,46.84
2023-04-22T18:16:39.337Z,47.33
2023-04-22T18:23:21.997Z,47.56
2023-04-22T18:30:05.100Z,48.00
2023-04-22T18:36:47.291Z,48.46
2023-04-22T18:43:29.546Z,49.06
2023-04-22T18:50:11.917Z,49.49
2023-04-22T18:56:54.079Z,50.08
2023-04-22T19:03:36.631Z,50.59
2023-04-22T19:10:19.107Z,51.22
2023-04-22T19:17:01.321Z,51.82
2023-04-22T19:23:43.582Z,52.35
2023-04-22T19:30:27.830Z,52.84
2023-04-22T19:37:09.981Z,53.74
2023-04-22T19:43:52.171Z,54.53
2023-04-22T19:50:34.879Z,54.85
2023-04-22T19:57:17.213Z,55.48
2023-04-22T20:04:00.290Z,56.38
2023-04-22T20:10:44.727Z,57.41
2023-04-22T20:17:27.626Z,57.52
2023-04-22T20:24:18.994Z,58.40
2023-04-22T20:31:01.622Z,58.95
2023-04-22T20:37:46.286Z,59.80
2023-04-22T20:44:28.714Z,61.16
2023-04-22T20:51:11.075Z,62.03
2023-04-22T20:57:53.326Z,62.98
2023-04-22T21:04:36.374Z,63.84
2023-04-22T21:11:18.909Z,64.46
2023-04-22T21:18:03.092Z,65.37
2023-04-22T21:24:49.569Z,66.18
2023-04-22T21:31:31.734Z,66.52
2023-04-22T21:38:16.362Z,66.88
2023-04-22T21:44:58.492Z,67.02
2023-04-22T21:51:40.867Z,67.08
2023-04-22T21:58:23.030Z,67.58
2023-04-22T22:05:05.483Z,68.24
2023-04-22T22:11:47.620Z,68.22
2023-04-22T22:18:29.798Z,68.42
2023-04-22T22:25:15.639Z,68.65
2023-04-22T22:31:57.808Z,68.68
2023-04-22T22:38:39.997Z,68.53
2023-04-22T22:45:22.161Z,68.42
2023-04-22T22:52:05.132Z,68.03
2023-04-22T22:58:48.250Z,67.78
2023-04-22T23:05:30.530Z,67.10
2023-04-22T23:12:12.696Z,66.87
2023-04-22T23:18:55.669Z,66.48
2023-04-22T23:25:38.231Z,65.66
2023-04-22T23:32:21.348Z,65.14
2023-04-22T23:39:05.821Z,64.54
2023-04-22T23:45:48.168Z,64.12
2023-04-22T23:52:30.642Z,63.98
2023-04-22T23:59:13.091Z,63.51
